Time;durP1;ratioP1;P1;durP2;ratioP2;P2;SDS_P1;SDS_P2;PMS_P1;PMS_P2;Temp;Humidity;BMP_temperature;BMP_pressure;BME280_temperature;BME280_humidity;BME280_pressure;Samples;Min_cycle;Max_cycle;Signal;HPM_P1;HPM_P2
2023/04/01 00:00:35;;;;;;;4.05;1.77;;;9.40;99.90;;;;;;2621904;46;20910;31
2023/04/01 00:03:15;;;;;;;2.90;1.80;;;9.40;99.90;;;;;;2603741;54;19946;31
2023/04/01 00:05:53;;;;;;;6.80;1.70;;;9.40;99.90;;;;;;2603560;54;20926;31
2023/04/01 00:08:28;;;;;;;5.90;2.50;;;9.40;99.90;;;;;;2622240;46;20022;31
2023/04/01 00:11:06;;;;;;;7.15;2.20;;;9.40;99.90;;;;;;2622231;46;20089;31
2023/04/01 00:13:44;;;;;;;3.40;1.80;;;9.40;99.90;;;;;;2603683;54;20639;31
2023/04/01 00:16:20;;;;;;;5.63;2.40;;;9.40;99.90;;;;;;2602629;54;20076;31
2023/04/01 00:18:59;;;;;;;4.63;2.70;;;9.40;99.90;;;;;;2622081;46;20030;31
2023/04/01 00:21:35;;;;;;;5.65;3.10;;;9.40;99.90;;;;;;2603611;54;20160;31
2023/04/01 00:24:11;;;;;;;9.80;5.15;;;9.40;99.90;;;;;;2622203;46;20053;31
2023/04/01 00:26:47;;;;;;;;;;;9.40;99.90;;;;;;2603753;54;20034;31
2023/04/01 00:29:23;;;;;;;10.50;5.10;;;9.40;99.90;;;;;;2603547;54;20746;31
2023/04/01 00:31:59;;;;;;;7.10;5.38;;;9.30;99.90;;;;;;2602723;54;20140;31
2023/04/01 00:34:39;;;;;;;;;;;9.30;99.90;;;;;;2603396;54;20671;31
2023/04/01 00:37:15;;;;;;;8.20;5.95;;;9.30;99.90;;;;;;2602514;54;19934;31
2023/04/01 00:39:53;;;;;;;9.20;5.38;;;9.30;99.90;;;;;;2603553;54;20890;31
2023/04/01 00:42:30;;;;;;;10.87;6.17;;;9.20;99.90;;;;;;2702111;39;20467;31
2023/04/01 00:45:22;;;;;;;12.50;6.28;;;9.30;99.90;;;;;;2603453;54;20094;31
2023/04/01 00:47:56;;;;;;;9.00;6.80;;;9.30;99.90;;;;;;2603419;54;20852;31
2023/04/01 00:50:34;;;;;;;8.45;6.38;;;9.30;99.90;;;;;;2603566;54;20104;31
2023/04/01 00:53:12;;;;;;;11.15;6.55;;;9.30;99.90;;;;;;2603470;54;20562;31
2023/04/01 00:55:49;;;;;;;11.95;7.55;;;9.30;99.90;;;;;;2702013;39;20490;31
2023/04/01 00:58:25;;;;;;;13.45;7.60;;;9.30;99.90;;;;;;2603376;54;20565;31
2023/04/01 01:01:02;;;;;;;11.17;7.20;;;9.30;99.90;;;;;;2701872;39;20516;31
2023/04/01 01:03:38;;;;;;;10.30;7.05;;;9.30;99.90;;;;;;2602943;54;20272;31
2023/04/01 01:06:26;;;;;;;9.05;6.93;;;9.30;99.90;;;;;;2621172;46;20874;31
2023/04/01 01:09:09;;;;;;;12.13;7.03;;;9.40;99.90;;;;;;2603183;54;20104;31
2023/04/01 01:11:42;;;;;;;13.00;8.55;;;9.30;99.90;;;;;;2603285;54;20085;31
2023/04/01 01:14:31;;;;;;;12.48;7.20;;;9.40;99.90;;;;;;2603434;54;20848;31
2023/04/01 01:17:11;;;;;;;13.07;8.90;;;9.30;99.90;;;;;;2603267;54;20026;31
2023/04/01 01:20:09;;;;;;;10.95;6.80;;;9.40;99.90;;;;;;2701781;39;20533;31
2023/04/01 01:23:22;;;;;;;11.77;6.97;;;9.40;99.90;;;;;;2603244;54;20026;31
2023/04/01 01:26:01;;;;;;;14.27;8.75;;;9.40;99.90;;;;;;2621446;46;20030;31
2023/04/01 01:28:41;;;;;;;14.70;9.20;;;9.40;99.90;;;;;;2603326;54;20077;31
2023/04/01 01:31:21;;;;;;;11.80;8.02;;;9.40;99.90;;;;;;2603252;54;20080;31
2023/04/01 01:34:06;;;;;;;11.32;8.52;;;9.40;99.90;;;;;;2603435;54;20825;31
2023/04/01 01:36:45;;;;;;;17.38;10.20;;;9.40;99.90;;;;;;2603300;54;20027;31
2023/04/01 01:39:21;;;;;;;12.50;9.50;;;9.40;99.90;;;;;;2621680;46;20151;31
2023/04/01 01:41:58;;;;;;;14.55;10.23;;;9.40;99.90;;;;;;2602854;54;20038;31
2023/04/01 01:44:33;;;;;;;13.60;10.20;;;9.40;99.90;;;;;;2621301;46;20897;31
2023/04/01 01:47:15;;;;;;;15.73;11.20;;;9.30;99.90;;;;;;2603175;54;20036;31
2023/04/01 01:49:54;;;;;;;14.25;10.50;;;9.40;99.90;;;;;;2602946;54;20756;31
2023/04/01 01:52:34;;;;;;;16.35;11.48;;;9.40;99.90;;;;;;2602359;54;20046;31
2023/04/01 01:55:29;;;;;;;13.63;10.55;;;9.40;99.90;;;;;;2603132;54;20745;31
2023/04/01 01:58:08;;;;;;;14.57;10.40;;;9.40;99.90;;;;;;2621595;47;20027;31
2023/04/01 02:00:50;;;;;;;21.52;13.75;;;9.40;99.90;;;;;;2602993;54;20037;31
2023/04/01 02:03:27;;;;;;;18.27;13.93;;;9.40;99.90;;;;;;2603079;54;20050;31
2023/04/01 02:06:06;;;;;;;11.25;8.95;;;9.40;99.90;;;;;;2603191;54;20081;31
2023/04/01 02:08:47;;;;;;;15.50;11.65;;;9.40;99.90;;;;;;2603012;54;20047;31
2023/04/01 02:11:22;;;;;;;13.80;9.40;;;9.50;99.90;;;;;;2602187;54;20022;31
2023/04/01 02:13:59;;;;;;;11.80;9.15;;;9.50;99.90;;;;;;2602510;54;20581;31
2023/04/01 02:16:37;;;;;;;16.73;10.23;;;9.50;99.90;;;;;;2603291;54;20871;31
2023/04/01 02:19:13;;;;;;;13.35;9.25;;;9.40;99.90;;;;;;2603986;54;20023;31
2023/04/01 02:21:56;;;;;;;14.95;9.48;;;9.50;99.90;;;;;;2603177;54;20019;31
2023/04/01 02:24:34;;;;;;;14.93;10.45;;;9.50;99.90;;;;;;2605883;46;20113;31
2023/04/01 02:27:10;;;;;;;13.33;9.40;;;9.50;99.90;;;;;;2701715;39;20539;31
2023/04/01 02:29:51;;;;;;;10.63;8.73;;;9.50;99.90;;;;;;2602924;54;20022;31
2023/04/01 02:32:29;;;;;;;17.52;10.10;;;9.50;99.90;;;;;;2604145;54;20026;31
2023/04/01 02:35:05;;;;;;;11.85;8.73;;;9.50;99.90;;;;;;2622114;46;19935;31
2023/04/01 02:37:42;;;;;;;14.55;9.75;;;9.40;99.90;;;;;;2603765;54;20853;31
2023/04/01 02:40:23;;;;;;;15.85;10.40;;;9.40;99.90;;;;;;2603743;54;20112;31
2023/04/01 02:42:58;;;;;;;12.95;8.75;;;9.40;99.90;;;;;;2604063;54;19953;31
2023/04/01 02:45:35;;;;;;;15.75;8.65;;;9.40;99.90;;;;;;2603758;54;20942;31
2023/04/01 02:48:10;;;;;;;14.10;8.60;;;9.40;99.90;;;;;;2603720;54;20115;31
2023/04/01 02:50:46;;;;;;;11.33;8.30;;;9.40;99.90;;;;;;2603940;54;20027;31
2023/04/01 02:53:23;;;;;;;13.77;9.00;;;9.50;99.90;;;;;;2603908;54;20089;31
2023/04/01 02:56:04;;;;;;;13.40;7.07;;;9.40;99.90;;;;;;2603485;54;20108;31
2023/04/01 02:58:41;;;;;;;11.88;6.88;;;9.50;99.90;;;;;;2603691;54;20042;31
2023/04/01 03:01:17;;;;;;;9.20;5.85;;;9.40;99.90;;;;;;2603677;54;20030;31
2023/04/01 03:03:52;;;;;;;8.43;4.90;;;9.40;99.90;;;;;;2603814;54;20030;31
2023/04/01 03:06:30;;;;;;;6.30;4.80;;;9.40;99.90;;;;;;2702463;39;21078;31
2023/04/01 03:09:05;;;;;;;10.93;5.75;;;9.40;99.90;;;;;;2773579;31;20545;31
2023/04/01 03:11:43;;;;;;;9.52;4.80;;;9.40;99.90;;;;;;2603700;54;19942;31
2023/04/01 03:14:21;;;;;;;7.78;4.72;;;9.40;99.90;;;;;;2603773;54;20797;31
2023/04/01 03:16:57;;;;;;;8.27;4.60;;;9.40;99.90;;;;;;2603587;54;20112;31
2023/04/01 03:19:36;;;;;;;9.05;4.55;;;9.40;99.90;;;;;;2603657;54;20744;31
2023/04/01 03:22:15;;;;;;;6.30;4.13;;;9.40;99.90;;;;;;2603639;54;20026;31
2023/04/01 03:24:50;;;;;;;10.50;4.20;;;9.40;99.90;;;;;;2603495;54;20914;31
2023/04/01 03:27:32;;;;;;;8.00;3.60;;;9.40;99.90;;;;;;2603651;54;20033;31
2023/04/01 03:30:09;;;;;;;5.50;3.70;;;9.40;99.90;;;;;;2603534;54;20789;31
2023/04/01 03:32:55;;;;;;;5.80;3.80;;;9.40;99.90;;;;;;2621876;46;20243;31
2023/04/01 03:35:31;;;;;;;7.47;3.65;;;9.40;99.90;;;;;;2603519;54;20034;31
2023/04/01 03:38:06;;;;;;;7.77;3.90;;;9.40;99.90;;;;;;2603606;54;20914;31
2023/04/01 03:40:46;;;;;;;8.05;3.80;;;9.40;99.90;;;;;;2622156;46;20053;31
2023/04/01 03:43:27;;;;;;;4.90;3.10;;;9.40;99.90;;;;;;2603526;54;20026;31
2023/04/01 03:46:05;;;;;;;9.98;3.75;;;9.40;99.90;;;;;;2603505;54;19935;31
2023/04/01 03:48:41;;;;;;;7.68;3.35;;;9.50;99.90;;;;;;2603746;54;20832;31
2023/04/01 03:51:17;;;;;;;8.43;3.05;;;9.50;99.90;;;;;;2602761;54;20099;31
2023/04/01 03:53:52;;;;;;;5.07;3.28;;;9.40;99.90;;;;;;2603624;54;20113;31
2023/04/01 03:56:28;;;;;;;5.50;3.57;;;9.40;99.90;;;;;;2602993;54;20030;31
2023/04/01 03:59:08;;;;;;;6.83;4.23;;;9.50;99.90;;;;;;2602835;54;20301;31
2023/04/01 04:01:43;;;;;;;13.85;5.07;;;9.50;99.90;;;;;;2621840;46;20034;31
2023/04/01 04:04:18;;;;;;;8.10;5.30;;;9.40;99.90;;;;;;2621577;46;20026;31
2023/04/01 04:06:54;;;;;;;12.93;6.60;;;9.40;99.90;;;;;;2603684;54;20863;31
2023/04/01 04:09:33;;;;;;;10.70;6.43;;;9.40;99.90;;;;;;2621613;46;20891;31
2023/04/01 04:12:11;;;;;;;9.07;5.68;;;9.40;99.90;;;;;;2605479;46;20034;31
2023/04/01 04:14:54;;;;;;;10.30;6.30;;;9.30;99.90;;;;;;2701125;39;21443;31
2023/04/01 04:17:31;;;;;;;11.48;6.38;;;9.40;99.90;;;;;;2603545;54;20026;31
2023/04/01 04:20:11;;;;;;;12.15;5.57;;;9.30;99.90;;;;;;2603453;54;20040;31
2023/04/01 04:22:49;;;;;;;9.10;4.90;;;9.30;99.90;;;;;;2621670;46;20898;31
2023/04/01 04:25:28;;;;;;;8.10;5.00;;;9.30;99.90;;;;;;2622022;46;20033;31
2023/04/01 04:28:05;;;;;;;11.25;5.75;;;9.30;99.90;;;;;;2603711;54;19935;31
2023/04/01 04:30:47;;;;;;;9.13;4.53;;;9.30;99.90;;;;;;2603357;54;20728;31
2023/04/01 04:33:22;;;;;;;9.85;4.38;;;9.30;99.90;;;;;;2603429;54;20033;31
2023/04/01 04:36:01;;;;;;;7.15;4.00;;;9.30;99.90;;;;;;2621526;46;20906;31
2023/04/01 04:38:40;;;;;;;9.60;4.32;;;9.30;99.90;;;;;;2603348;54;20599;31
2023/04/01 04:41:17;;;;;;;7.82;3.75;;;9.20;99.90;;;;;;2603005;54;20572;31
2023/04/01 04:43:58;;;;;;;7.65;3.53;;;9.20;99.90;;;;;;2602721;54;20089;31
2023/04/01 04:46:37;;;;;;;6.70;3.53;;;9.20;99.90;;;;;;2603260;54;20803;31
2023/04/01 04:49:20;;;;;;;6.45;3.78;;;9.30;99.90;;;;;;2603376;54;20502;31
2023/04/01 04:51:56;;;;;;;7.45;3.95;;;9.20;99.90;;;;;;2602673;54;20030;31
2023/04/01 04:54:34;;;;;;;7.55;3.38;;;9.20;99.90;;;;;;2603218;54;20056;31
2023/04/01 04:57:11;;;;;;;4.65;2.45;;;9.20;99.90;;;;;;2603381;54;20875;31
2023/04/01 04:59:58;;;;;;;6.38;3.10;;;9.30;99.90;;;;;;2603468;54;20027;31
2023/04/01 05:03:02;;;;;;;6.90;4.00;;;9.30;99.90;;;;;;2603595;54;20027;31
2023/04/01 05:05:39;;;;;;;8.30;3.53;;;9.30;99.90;;;;;;2602623;54;20082;31
2023/04/01 05:08:15;;;;;;;4.55;2.80;;;9.30;99.90;;;;;;2621823;46;20620;31
2023/04/01 05:10:53;;;;;;;5.22;3.33;;;9.30;99.90;;;;;;2603366;54;20038;31
2023/04/01 05:13:30;;;;;;;5.60;3.65;;;9.30;99.90;;;;;;2603418;54;20867;31
2023/04/01 05:16:10;;;;;;;7.28;4.15;;;9.30;99.90;;;;;;2603419;54;20048;31
2023/04/01 05:18:49;;;;;;;7.45;4.07;;;9.30;99.90;;;;;;2720165;39;20481;31
2023/04/01 05:21:25;;;;;;;5.28;3.60;;;9.30;99.90;;;;;;2603419;54;20026;31
2023/04/01 05:24:01;;;;;;;5.40;4.00;;;9.30;99.90;;;;;;2603315;54;20787;31
2023/04/01 05:26:39;;;;;;;6.93;3.88;;;9.30;99.90;;;;;;2621590;46;20064;31
2023/04/01 05:29:15;;;;;;;7.38;4.10;;;9.30;99.90;;;;;;2603354;54;20026;31
2023/04/01 05:31:55;;;;;;;8.40;4.00;;;9.30;99.90;;;;;;2603207;54;20031;31
2023/04/01 05:34:35;;;;;;;6.15;3.55;;;9.30;99.90;;;;;;2602585;54;20891;31
2023/04/01 05:37:13;;;;;;;8.18;4.45;;;9.30;99.90;;;;;;2622010;46;20879;31
2023/04/01 05:39:49;;;;;;;7.60;4.00;;;9.40;99.90;;;;;;2611700;46;20034;31
2023/04/01 05:42:27;;;;;;;5.90;4.20;;;9.40;99.90;;;;;;2603283;54;20052;31
2023/04/01 05:45:02;;;;;;;8.63;3.83;;;9.40;99.90;;;;;;2603279;54;20872;31
2023/04/01 05:47:57;;;;;;;10.50;4.15;;;9.40;99.90;;;;;;2603479;54;20813;31
2023/04/01 05:50:39;;;;;;;7.40;3.88;;;9.40;99.90;;;;;;2603146;54;20573;31
2023/04/01 05:53:15;;;;;;;5.35;3.95;;;9.40;99.90;;;;;;2603175;54;20903;31
2023/04/01 05:55:52;;;;;;;8.48;5.50;;;9.40;99.90;;;;;;2603078;54;20022;31
2023/04/01 05:58:28;;;;;;;13.73;6.30;;;9.50;99.90;;;;;;2602863;54;20036;31
2023/04/01 06:01:05;;;;;;;7.43;4.55;;;9.40;99.90;;;;;;2603263;54;19943;31
2023/04/01 06:03:48;;;;;;;13.73;5.60;;;9.50;99.90;;;;;;2603174;54;20033;31
2023/04/01 06:06:26;;;;;;;;;;;9.40;99.90;;;;;;2602493;54;20088;31
2023/04/01 06:09:17;;;;;;;10.07;5.60;;;9.40;99.90;;;;;;2770666;31;20563;31
2023/04/01 06:12:08;;;;;;;7.38;5.22;;;9.40;99.90;;;;;;2603210;54;20886;31
2023/04/01 06:14:55;;;;;;;8.38;5.45;;;9.40;99.90;;;;;;2603085;54;20026;31
2023/04/01 06:17:32;;;;;;;9.13;5.77;;;9.50;99.90;;;;;;2602304;54;20065;31
2023/04/01 06:20:10;;;;;;;11.88;5.43;;;9.50;99.90;;;;;;2621314;47;20528;31
2023/04/01 06:22:56;;;;;;;10.50;4.57;;;9.50;99.90;;;;;;2602113;54;21333;31
2023/04/01 06:25:46;;;;;;;10.60;5.47;;;9.50;99.90;;;;;;2603058;54;20887;31
2023/04/01 06:28:43;;;;;;;13.05;6.72;;;9.50;99.90;;;;;;2621805;47;20811;31
2023/04/01 06:31:27;;;;;;;13.30;6.60;;;9.60;99.90;;;;;;2621202;47;20023;31
2023/04/01 06:34:12;;;;;;;10.88;6.13;;;9.60;99.90;;;;;;2603185;54;20815;31
2023/04/01 06:40:16;;;;;;;9.00;5.95;;;9.60;99.90;;;;;;2603124;54;20861;31
2023/04/01 06:45:55;;;;;;;12.32;7.07;;;9.60;99.90;;;;;;2773133;31;20552;31
2023/04/01 06:49:00;;;;;;;11.32;6.90;;;9.70;99.90;;;;;;2603034;54;20033;31
2023/04/01 06:51:58;;;;;;;9.90;6.60;;;9.70;99.90;;;;;;2602901;54;20896;31
2023/04/01 06:54:52;;;;;;;9.68;7.53;;;9.70;99.90;;;;;;2603117;54;20885;31
2023/04/01 06:57:50;;;;;;;11.37;8.43;;;9.70;99.90;;;;;;2701546;39;20446;31
2023/04/01 07:00:31;;;;;;;;;;;9.80;99.90;;;;;;2602477;54;20362;31
2023/04/01 07:03:17;;;;;;;12.85;7.68;;;9.80;99.90;;;;;;2603872;54;20028;31
2023/04/01 07:05:53;;;;;;;8.68;5.97;;;9.80;99.90;;;;;;2603683;54;20026;31
2023/04/01 07:08:34;;;;;;;9.73;5.50;;;9.80;99.90;;;;;;2602775;54;20022;31
2023/04/01 07:11:13;;;;;;;7.78;5.20;;;9.80;99.90;;;;;;2701270;39;20903;31
2023/04/01 07:14:10;;;;;;;10.65;6.35;;;9.80;99.90;;;;;;2603107;54;20846;31
2023/04/01 07:16:47;;;;;;;7.78;5.35;;;9.90;99.90;;;;;;2622006;46;20081;31
2023/04/01 07:19:28;;;;;;;6.55;5.38;;;9.90;99.90;;;;;;2603599;54;20045;31
2023/04/01 07:22:21;;;;;;;10.10;5.50;;;9.80;99.90;;;;;;2603739;54;20053;31
2023/04/01 07:25:18;;;;;;;7.05;4.75;;;9.90;99.90;;;;;;2603808;54;20775;31
2023/04/01 07:28:06;;;;;;;5.43;4.70;;;10.00;99.90;;;;;;2603733;54;20022;31
2023/04/01 07:30:53;;;;;;;5.57;4.90;;;9.90;99.90;;;;;;2721027;39;21036;31
2023/04/01 07:33:33;;;;;;;6.53;4.80;;;9.90;99.90;;;;;;2603546;54;20081;31
2023/04/01 07:36:22;;;;;;;5.95;4.72;;;9.90;99.90;;;;;;2621944;46;20022;31
2023/04/01 07:39:02;;;;;;;7.40;4.47;;;9.90;99.90;;;;;;2603509;54;20054;31
2023/04/01 07:42:00;;;;;;;7.05;4.55;;;9.90;99.90;;;;;;2603599;54;20034;31
2023/04/01 07:44:41;;;;;;;6.97;4.70;;;9.90;99.90;;;;;;2621796;46;20116;31
2023/04/01 07:47:26;;;;;;;8.13;4.38;;;10.00;99.90;;;;;;2603551;54;20797;31
2023/04/01 07:50:09;;;;;;;7.18;4.88;;;10.00;99.90;;;;;;2603583;54;20033;31
2023/04/01 07:52:50;;;;;;;4.95;4.30;;;10.00;99.90;;;;;;2603399;54;20755;31
2023/04/01 07:55:32;;;;;;;8.35;4.75;;;10.00;99.90;;;;;;2603416;54;20898;31
2023/04/01 07:58:09;;;;;;;7.20;5.15;;;10.10;99.90;;;;;;2603450;54;20042;31
2023/04/01 08:00:52;;;;;;;8.45;4.50;;;10.10;99.90;;;;;;2603468;54;20026;31
2023/04/01 08:03:44;;;;;;;7.80;5.60;;;10.20;99.90;;;;;;2622254;46;20900;31
2023/04/01 08:06:21;;;;;;;6.85;4.85;;;10.20;99.90;;;;;;2603754;54;21174;31
2023/04/01 08:09:05;;;;;;;6.10;4.25;;;10.30;99.90;;;;;;2603471;54;20034;31
2023/04/01 08:15:05;;;;;;;8.00;4.45;;;10.40;99.90;;;;;;2603629;54;20551;31
2023/04/01 08:17:57;;;;;;;8.73;4.35;;;10.40;99.90;;;;;;2603411;54;20018;31
2023/04/01 08:20:32;;;;;;;6.40;4.90;;;10.50;99.90;;;;;;2621967;46;20042;31
2023/04/01 08:23:09;;;;;;;7.60;4.20;;;10.50;99.90;;;;;;2603309;54;20146;31
2023/04/01 08:25:54;;;;;;;7.77;4.23;;;10.50;99.90;;;;;;2603479;54;20038;31
2023/04/01 08:28:35;;;;;;;7.30;4.47;;;10.60;99.90;;;;;;2603577;54;20030;31
2023/04/01 08:31:16;;;;;;;8.98;4.05;;;10.60;99.90;;;;;;2603474;54;20851;31
2023/04/01 08:33:56;;;;;;;7.85;3.55;;;10.70;99.90;;;;;;2702177;39;21034;31
2023/04/01 08:36:35;;;;;;;7.20;4.40;;;10.70;99.90;;;;;;2603262;54;20030;31
2023/04/01 08:39:25;;;;;;;7.13;3.60;;;10.70;99.90;;;;;;2603444;54;20034;31
2023/04/01 08:42:22;;;;;;;7.70;3.70;;;10.70;99.90;;;;;;2602618;54;20069;31
2023/04/01 08:45:21;;;;;;;8.85;4.05;;;10.80;99.90;;;;;;2603389;54;20035;31
2023/04/01 08:48:08;;;;;;;9.30;4.25;;;10.80;99.90;;;;;;2603348;54;20095;31
2023/04/01 08:51:02;;;;;;;6.10;4.82;;;10.80;99.90;;;;;;2603424;54;20030;31
2023/04/01 08:53:41;;;;;;;7.35;4.35;;;10.90;99.90;;;;;;2603283;54;20026;31
2023/04/01 08:56:22;;;;;;;8.02;4.88;;;10.90;99.90;;;;;;2603233;54;20931;31
2023/04/01 08:59:20;;;;;;;7.50;4.10;;;11.00;99.90;;;;;;2621561;46;20048;31
2023/04/01 09:02:30;;;;;;;7.22;3.78;;;11.00;99.90;;;;;;2603267;54;20027;31
2023/04/01 09:05:25;;;;;;;4.93;3.80;;;11.00;99.90;;;;;;2603426;54;20048;31
2023/04/01 09:08:00;;;;;;;6.25;3.75;;;11.00;99.90;;;;;;2603275;54;20993;31
2023/04/01 09:10:59;;;;;;;10.50;4.13;;;11.10;99.90;;;;;;2603511;54;20036;31
2023/04/01 09:17:21;;;;;;;6.30;3.63;;;11.30;99.90;;;;;;2603337;54;20078;31
2023/04/01 09:20:19;;;;;;;4.00;3.47;;;11.40;99.90;;;;;;2603273;54;20902;31
2023/04/01 09:23:02;;;;;;;7.68;3.40;;;11.40;99.90;;;;;;2602827;54;20119;31
2023/04/01 09:25:49;;;;;;;6.93;3.42;;;11.50;99.90;;;;;;2701633;39;20481;31
2023/04/01 09:28:30;;;;;;;5.75;3.70;;;11.40;99.90;;;;;;2603160;54;20139;31
2023/04/01 09:31:18;;;;;;;6.23;3.30;;;11.40;99.90;;;;;;2602480;54;20034;31
2023/04/01 09:34:54;;;;;;;8.40;3.60;;;11.50;99.90;;;;;;2603222;54;20026;31
2023/04/01 09:37:43;;;;;;;10.03;3.97;;;11.50;99.90;;;;;;2621669;46;20560;31
2023/04/01 09:40:28;;;;;;;5.40;4.03;;;11.60;99.90;;;;;;2603343;54;20049;31
2023/04/01 09:43:26;;;;;;;6.82;4.10;;;11.60;99.90;;;;;;2603172;54;20030;31
2023/04/01 09:46:26;;;;;;;6.72;4.78;;;11.60;99.90;;;;;;2603171;54;20911;31
2023/04/01 09:49:34;;;;;;;10.73;5.15;;;11.60;99.90;;;;;;2603170;54;20023;31
2023/04/01 09:52:36;;;;;;;6.63;3.70;;;11.50;99.90;;;;;;2603027;54;20899;31
2023/04/01 09:55:45;;;;;;;10.52;4.75;;;11.50;99.90;;;;;;2602877;54;20044;31
2023/04/01 09:58:32;;;;;;;13.85;6.90;;;11.60;99.90;;;;;;2621742;47;20030;31
2023/04/01 10:02:11;;;;;;;3.65;2.67;;;11.60;99.90;;;;;;2603248;54;20786;31
2023/04/01 10:05:12;;;;;;;6.95;3.30;;;11.60;99.90;;;;;;2603306;54;20033;31
2023/04/01 10:10:47;;;;;;;5.32;3.10;;;11.50;99.90;;;;;;2602572;54;20880;31
2023/04/01 10:14:07;;;;;;;4.45;1.45;;;11.50;99.90;;;;;;2602786;54;20867;31
2023/04/01 10:17:13;;;;;;;1.63;0.88;;;11.40;99.90;;;;;;2602579;54;20116;31
2023/04/01 10:20:10;;;;;;;1.65;1.00;;;11.30;99.90;;;;;;2602875;54;20804;31
2023/04/01 10:22:45;;;;;;;1.45;1.00;;;11.20;99.90;;;;;;2602973;54;20033;31
2023/04/01 10:25:37;;;;;;;3.35;1.50;;;11.00;99.90;;;;;;2719594;39;21568;31
2023/04/01 10:28:52;;;;;;;2.75;1.50;;;10.90;99.90;;;;;;2602967;54;20561;31
2023/04/01 10:31:51;;;;;;;3.78;1.80;;;10.80;99.90;;;;;;2602667;54;20033;31
2023/04/01 10:34:49;;;;;;;2.10;1.55;;;10.70;99.90;;;;;;2603106;54;20839;31
2023/04/01 10:37:32;;;;;;;2.70;1.40;;;10.60;99.90;;;;;;2622107;46;20271;31
2023/04/01 10:40:35;;;;;;;1.55;1.15;;;10.50;99.90;;;;;;2603850;54;20016;31
2023/04/01 10:43:57;;;;;;;1.63;1.13;;;10.50;99.90;;;;;;2604171;54;20030;31
2023/04/01 10:46:55;;;;;;;2.47;1.27;;;10.40;99.90;;;;;;2603716;54;20022;31
2023/04/01 10:49:51;;;;;;;2.03;1.43;;;10.40;99.90;;;;;;2603833;54;20019;31
2023/04/01 10:52:25;;;;;;;2.75;1.30;;;10.30;99.90;;;;;;2621800;46;21095;31
2023/04/01 10:55:49;;;;;;;2.25;1.70;;;10.30;99.90;;;;;;2603750;54;20931;31
2023/04/01 10:59:03;;;;;;;5.40;2.30;;;10.30;99.90;;;;;;2702147;39;20474;31
2023/04/01 11:02:36;;;;;;;1.90;1.52;;;10.40;99.90;;;;;;2603887;54;20023;31
2023/04/01 11:05:38;;;;;;;3.13;2.00;;;10.40;99.90;;;;;;2604056;54;20877;31
2023/04/01 11:08:54;;;;;;;3.75;1.40;;;10.40;99.90;;;;;;2603910;54;20018;31
2023/04/01 11:11:59;;;;;;;3.65;2.10;;;10.50;99.90;;;;;;2603620;54;20041;31
2023/04/01 11:15:01;;;;;;;3.08;2.00;;;10.60;99.90;;;;;;2603661;54;20096;31
2023/04/01 11:18:12;;;;;;;3.72;2.47;;;10.80;99.90;;;;;;2603501;54;20050;31
2023/04/01 11:21:12;;;;;;;4.97;2.75;;;11.00;99.90;;;;;;2603603;54;20843;31
2023/04/01 11:23:47;;;;;;;5.28;2.78;;;11.20;99.90;;;;;;2603576;54;20790;31
2023/04/01 11:26:47;;;;;;;4.27;2.57;;;11.30;99.90;;;;;;2603555;54;20022;31
2023/04/01 11:29:57;;;;;;;2.95;2.50;;;11.40;99.90;;;;;;2621939;46;20022;31
2023/04/01 11:32:48;;;;;;;4.00;2.50;;;11.40;99.90;;;;;;2621839;46;20018;31
2023/04/01 11:35:46;;;;;;;4.25;1.90;;;11.30;99.90;;;;;;2603725;54;20023;31
2023/04/01 11:41:04;;;;;;;3.25;2.20;;;11.20;99.90;;;;;;2603994;54;20935;31
2023/04/01 11:44:21;;;;;;;4.55;1.65;;;11.10;99.90;;;;;;2603573;54;20023;31
2023/04/01 11:47:32;;;;;;;2.38;1.08;;;11.10;99.90;;;;;;2603183;54;20034;31
2023/04/01 11:50:19;;;;;;;1.73;1.17;;;11.00;99.90;;;;;;2603538;54;20889;31
2023/04/01 11:53:17;;;;;;;2.65;1.20;;;11.00;99.90;;;;;;2603625;54;20762;31
2023/04/01 11:56:03;;;;;;;3.15;1.55;;;11.00;99.90;;;;;;2603269;54;20917;31
2023/04/01 11:58:57;;;;;;;2.28;1.50;;;11.00;99.90;;;;;;2603362;54;20027;31
2023/04/01 12:01:51;;;;;;;1.85;1.15;;;11.00;99.90;;;;;;2603608;54;20856;31
2023/04/01 12:05:04;;;;;;;2.57;1.70;;;11.00;99.90;;;;;;2603401;54;20922;31
2023/04/01 12:07:53;;;;;;;2.67;1.50;;;11.10;99.90;;;;;;2621389;46;20026;31
2023/04/01 12:10:33;;;;;;;1.80;1.10;;;11.20;99.90;;;;;;2622490;46;20533;31
2023/04/01 12:13:17;;;;;;;1.17;0.75;;;11.20;99.90;;;;;;2621935;46;20037;31
2023/04/01 12:15:57;;;;;;;1.95;0.70;;;11.30;99.90;;;;;;2603477;54;20029;31
2023/04/01 12:21:12;;;;;;;1.35;0.80;;;11.40;99.90;;;;;;2603469;54;20787;31
2023/04/01 12:24:12;;;;;;;1.17;0.60;;;11.50;99.90;;;;;;2603596;54;20089;31
2023/04/01 12:27:22;;;;;;;1.15;0.70;;;11.60;99.90;;;;;;2621669;46;20755;31
2023/04/01 12:30:19;;;;;;;0.90;0.60;;;11.70;99.90;;;;;;2603217;54;21833;31
2023/04/01 12:33:00;;;;;;;1.20;0.70;;;11.80;99.90;;;;;;2603688;54;20031;31
2023/04/01 12:35:40;;;;;;;0.85;0.50;;;11.90;99.90;;;;;;2701891;39;20513;31
2023/04/01 12:38:21;;;;;;;1.40;0.50;;;12.00;99.90;;;;;;2603392;54;20102;31
2023/04/01 12:41:03;;;;;;;1.10;0.60;;;12.10;99.90;;;;;;2603617;54;20034;31
2023/04/01 12:44:12;;;;;;;0.90;0.50;;;12.20;99.90;;;;;;2621953;46;20131;31
2023/04/01 12:47:24;;;;;;;0.70;0.55;;;12.30;99.90;;;;;;2603146;54;20916;31
2023/04/01 12:50:14;;;;;;;1.20;0.40;;;12.40;99.90;;;;;;2602992;54;20026;31
2023/04/01 12:52:55;;;;;;;0.90;0.60;;;12.50;99.90;;;;;;2603289;54;20817;31
2023/04/01 12:58:23;;;;;;;1.55;0.93;;;12.80;99.90;;;;;;2621788;46;20009;31
2023/04/01 13:01:03;;;;;;;;;;;12.90;99.90;;;;;;2603765;54;20923;31
2023/04/01 13:04:01;;;;;;;1.50;0.73;;;13.00;99.90;;;;;;2621921;46;20001;31
2023/04/01 13:09:18;;;;;;;2.10;0.90;;;13.10;99.90;;;;;;2621963;46;20849;31
2023/04/01 13:12:01;;;;;;;2.28;1.20;;;13.00;99.90;;;;;;2606920;46;20031;31
2023/04/01 13:15:09;;;;;;;1.40;1.00;;;13.00;99.90;;;;;;2603132;54;20100;31
2023/04/01 13:17:47;;;;;;;1.55;0.95;;;13.10;99.90;;;;;;2603436;54;20030;31
2023/04/01 13:20:32;;;;;;;4.07;1.80;;;13.10;99.90;;;;;;2603463;54;20026;31
2023/04/01 13:23:14;;;;;;;3.42;1.58;;;13.10;99.90;;;;;;2622032;46;20031;31
2023/04/01 13:25:57;;;;;;;3.40;1.83;;;13.10;99.90;;;;;;2603166;54;20081;31
2023/04/01 13:28:49;;;;;;;9.10;1.60;;;13.10;99.90;;;;;;2603368;54;20085;31
2023/04/01 13:31:35;;;;;;;3.08;1.33;;;13.10;99.90;;;;;;2621604;46;20670;31
2023/04/01 13:34:18;;;;;;;3.60;1.60;;;13.00;99.90;;;;;;2603255;54;20108;31
2023/04/01 13:37:02;;;;;;;2.67;1.90;;;12.90;99.90;;;;;;2602397;54;20843;31
2023/04/01 13:39:44;;;;;;;3.72;1.63;;;12.80;99.90;;;;;;2603173;54;20160;31
2023/04/01 13:42:18;;;;;;;2.75;1.40;;;12.80;99.90;;;;;;2603499;54;20894;31
2023/04/01 13:44:56;;;;;;;2.15;1.20;;;12.80;99.90;;;;;;2603037;54;20029;31
2023/04/01 13:47:56;;;;;;;3.40;1.20;;;12.70;99.90;;;;;;2613564;46;20872;31
2023/04/01 13:50:54;;;;;;;1.67;1.27;;;12.70;99.90;;;;;;2603148;54;20031;31
2023/04/01 13:54:01;;;;;;;1.90;1.00;;;12.70;99.90;;;;;;2602819;54;20052;31
2023/04/01 13:56:52;;;;;;;;;;;12.70;99.90;;;;;;2704367;39;20504;31
2023/04/01 14:00:05;;;;;;;1.80;1.30;;;12.70;99.90;;;;;;2701644;39;20401;31
2023/04/01 14:03:17;;;;;;;2.05;1.17;;;12.60;99.90;;;;;;2602839;54;20902;31
2023/04/01 14:05:57;;;;;;;1.38;1.00;;;12.60;99.90;;;;;;2621405;47;20085;31
2023/04/01 14:09:14;;;;;;;1.60;1.10;;;12.60;99.90;;;;;;2603334;54;20050;31
2023/04/01 14:11:55;;;;;;;4.23;2.17;;;12.60;99.90;;;;;;2603672;54;20932;31
2023/04/01 14:14:38;;;;;;;4.05;2.08;;;12.60;99.90;;;;;;2603944;54;20264;31
2023/04/01 14:17:31;;;;;;;1.73;1.00;;;12.60;99.90;;;;;;2791877;31;21663;31
2023/04/01 14:20:43;;;;;;;2.40;1.30;;;12.60;99.90;;;;;;2603641;54;20077;31
2023/04/01 14:23:38;;;;;;;1.98;1.10;;;12.70;99.90;;;;;;2603853;54;20069;31
2023/04/01 14:26:32;;;;;;;2.23;1.40;;;12.60;99.90;;;;;;2603876;54;20030;31
2023/04/01 14:29:19;;;;;;;1.98;1.20;;;12.60;99.90;;;;;;2604055;54;20930;31
2023/04/01 14:32:02;;;;;;;1.83;1.40;;;12.50;99.90;;;;;;2622201;46;20027;31
2023/04/01 14:34:43;;;;;;;3.38;1.63;;;12.50;99.90;;;;;;2603063;54;20030;31
2023/04/01 14:37:35;;;;;;;2.63;1.70;;;12.40;99.90;;;;;;2622236;46;20034;31
2023/04/01 14:40:25;;;;;;;3.05;2.00;;;12.30;99.90;;;;;;2603719;54;20818;31
2023/04/01 14:43:34;;;;;;;3.53;2.53;;;12.20;99.90;;;;;;2622157;46;20030;31
2023/04/01 14:48:57;;;;;;;6.50;3.00;;;12.10;99.90;;;;;;2604040;54;20035;31
2023/04/01 14:51:37;;;;;;;8.68;4.40;;;12.00;99.90;;;;;;2603641;54;20027;31
2023/04/01 14:54:22;;;;;;;8.02;5.55;;;11.90;99.90;;;;;;2604026;54;20046;31
2023/04/01 14:57:08;;;;;;;8.37;5.97;;;11.90;99.90;;;;;;2702196;39;21364;31
2023/04/01 14:59:50;;;;;;;12.95;6.80;;;11.90;99.90;;;;;;2603766;54;20030;31
2023/04/01 15:02:49;;;;;;;15.40;8.98;;;11.90;99.90;;;;;;2603701;54;20859;31
2023/04/01 15:05:35;;;;;;;29.35;16.48;;;11.80;99.90;;;;;;2603823;54;20046;31
2023/04/01 15:08:17;;;;;;;17.80;12.70;;;11.80;99.90;;;;;;2603422;54;20916;31